San Miguel de Tucuman, Argentina
Current Conditions -  °F | °C
As of 9:00 PM on Wednesday 22 Oct 2014 (Local Time) from SANT Reporting Station
Scattered Clouds Scattered Clouds  
Wind Chill: 90°   Ceiling: Unl
Heat Index: 90°   Visibility: 5mi
Dew Point: 55°   Wind: 17mph
Humidity: 31%   Direction: 50°NE
Pressure: 29.88"   Gusts: NA
Location:  26.83°S, 65.21°W
Report Text: SANT 230000Z 05015KT 8000 FEW045 FEW100 SCT20032/13 Q1012
Loading
Personal Weather Stations






























Interactive Weather Map
Tropical Storm Tracking
New forecast layout! Learn more

10-Day Weather Forecast

Advertisements
Track Severe Weather on mobile